sensor_id;sensor_type;location;lat;lon;timestamp;temperature;humidity
360;DHT22;168;48.872;9.226;2023-10-09T00:02:44;15.10;95.00
360;DHT22;168;48.872;9.226;2023-10-09T00:05:11;15.10;95.00
360;DHT22;168;48.872;9.226;2023-10-09T00:07:49;15.00;95.10
360;DHT22;168;48.872;9.226;2023-10-09T00:10:19;15.00;95.00
360;DHT22;168;48.872;9.226;2023-10-09T00:12:49;15.10;95.00
360;DHT22;168;48.872;9.226;2023-10-09T00:15:16;15.00;95.00
360;DHT22;168;48.872;9.226;2023-10-09T00:17:44;15.00;95.00
360;DHT22;168;48.872;9.226;2023-10-09T00:20:12;15.10;95.10
360;DHT22;168;48.872;9.226;2023-10-09T00:23:00;15.00;95.10
360;DHT22;168;48.872;9.226;2023-10-09T00:25:27;15.00;94.90
360;DHT22;168;48.872;9.226;2023-10-09T00:27:57;15.00;95.00
360;DHT22;168;48.872;9.226;2023-10-09T00:30:25;14.90;94.80
360;DHT22;168;48.872;9.226;2023-10-09T00:32:55;15.00;95.10
360;DHT22;168;48.872;9.226;2023-10-09T00:35:27;15.00;95.10
360;DHT22;168;48.872;9.226;2023-10-09T00:38:07;15.00;95.10
360;DHT22;168;48.872;9.226;2023-10-09T00:40:44;15.00;95.10
360;DHT22;168;48.872;9.226;2023-10-09T00:43:15;14.90;95.00
360;DHT22;168;48.872;9.226;2023-10-09T00:45:46;14.90;94.90
360;DHT22;168;48.872;9.226;2023-10-09T00:48:17;14.90;94.80
360;DHT22;168;48.872;9.226;2023-10-09T00:50:52;14.90;95.00
360;DHT22;168;48.872;9.226;2023-10-09T00:53:20;14.90;95.10
360;DHT22;168;48.872;9.226;2023-10-09T00:55:57;14.90;95.20
360;DHT22;168;48.872;9.226;2023-10-09T00:58:30;14.90;95.30
360;DHT22;168;48.872;9.226;2023-10-09T01:01:02;15.00;95.50
360;DHT22;168;48.872;9.226;2023-10-09T01:03:30;14.90;95.50
360;DHT22;168;48.872;9.226;2023-10-09T01:06:01;15.00;95.50
360;DHT22;168;48.872;9.226;2023-10-09T01:08:42;15.00;95.50
360;DHT22;168;48.872;9.226;2023-10-09T01:11:13;15.00;95.70
360;DHT22;168;48.872;9.226;2023-10-09T01:13:47;15.10;95.80
360;DHT22;168;48.872;9.226;2023-10-09T01:16:21;15.10;95.70
360;DHT22;168;48.872;9.226;2023-10-09T01:18:49;15.10;95.70
360;DHT22;168;48.872;9.226;2023-10-09T01:21:17;15.10;95.70
360;DHT22;168;48.872;9.226;2023-10-09T01:23:53;15.10;95.80
360;DHT22;168;48.872;9.226;2023-10-09T01:26:30;15.10;95.80
360;DHT22;168;48.872;9.226;2023-10-09T01:29:01;15.10;95.80
360;DHT22;168;48.872;9.226;2023-10-09T01:31:29;15.10;95.90
360;DHT22;168;48.872;9.226;2023-10-09T01:34:03;15.20;95.90
360;DHT22;168;48.872;9.226;2023-10-09T01:36:36;15.10;95.80
360;DHT22;168;48.872;9.226;2023-10-09T01:39:07;15.20;95.90
360;DHT22;168;48.872;9.226;2023-10-09T01:41:36;15.10;95.80
360;DHT22;168;48.872;9.226;2023-10-09T01:44:12;15.10;95.80
360;DHT22;168;48.872;9.226;2023-10-09T01:46:42;15.10;95.70
360;DHT22;168;48.872;9.226;2023-10-09T01:49:12;15.10;95.80
360;DHT22;168;48.872;9.226;2023-10-09T01:51:47;15.10;95.80
360;DHT22;168;48.872;9.226;2023-10-09T01:54:17;15.10;95.80
360;DHT22;168;48.872;9.226;2023-10-09T01:56:59;15.10;95.90
360;DHT22;168;48.872;9.226;2023-10-09T01:59:32;15.20;95.80
360;DHT22;168;48.872;9.226;2023-10-09T02:02:04;15.20;95.80
360;DHT22;168;48.872;9.226;2023-10-09T02:04:50;15.20;95.80
360;DHT22;168;48.872;9.226;2023-10-09T02:07:19;15.20;95.90
360;DHT22;168;48.872;9.226;2023-10-09T02:09:56;15.20;95.90
360;DHT22;168;48.872;9.226;2023-10-09T02:12:24;15.20;96.00
360;DHT22;168;48.872;9.226;2023-10-09T02:14:59;15.20;96.10
360;DHT22;168;48.872;9.226;2023-10-09T02:17:32;15.20;96.10
360;DHT22;168;48.872;9.226;2023-10-09T02:20:00;15.20;96.10
360;DHT22;168;48.872;9.226;2023-10-09T02:22:42;15.20;96.20
360;DHT22;168;48.872;9.226;2023-10-09T02:25:11;15.30;96.10
360;DHT22;168;48.872;9.226;2023-10-09T02:27:39;15.30;96.10
360;DHT22;168;48.872;9.226;2023-10-09T02:30:19;15.20;96.20
360;DHT22;168;48.872;9.226;2023-10-09T02:32:54;15.20;96.20
360;DHT22;168;48.872;9.226;2023-10-09T02:35:33;15.30;96.20
360;DHT22;168;48.872;9.226;2023-10-09T02:38:08;15.30;96.30
360;DHT22;168;48.872;9.226;2023-10-09T02:40:42;15.30;96.20
360;DHT22;168;48.872;9.226;2023-10-09T02:43:40;15.30;96.20
360;DHT22;168;48.872;9.226;2023-10-09T02:46:10;15.30;96.20
360;DHT22;168;48.872;9.226;2023-10-09T02:48:40;15.30;96.20
360;DHT22;168;48.872;9.226;2023-10-09T02:51:13;15.20;96.20
360;DHT22;168;48.872;9.226;2023-10-09T02:53:58;15.20;96.30
360;DHT22;168;48.872;9.226;2023-10-09T02:56:27;15.20;96.20
360;DHT22;168;48.872;9.226;2023-10-09T02:59:04;15.30;96.30
360;DHT22;168;48.872;9.226;2023-10-09T03:01:33;15.20;96.30
360;DHT22;168;48.872;9.226;2023-10-09T03:04:03;15.20;96.30
360;DHT22;168;48.872;9.226;2023-10-09T03:06:32;15.20;96.20
360;DHT22;168;48.872;9.226;2023-10-09T03:09:09;15.20;96.30
360;DHT22;168;48.872;9.226;2023-10-09T03:11:45;15.20;96.30
360;DHT22;168;48.872;9.226;2023-10-09T03:14:14;15.30;96.20
360;DHT22;168;48.872;9.226;2023-10-09T03:16:42;15.20;96.20
360;DHT22;168;48.872;9.226;2023-10-09T03:19:10;15.10;96.30
360;DHT22;168;48.872;9.226;2023-10-09T03:21:39;15.20;96.30
360;DHT22;168;48.872;9.226;2023-10-09T03:24:07;15.20;96.30
360;DHT22;168;48.872;9.226;2023-10-09T03:26:35;15.20;96.20
360;DHT22;168;48.872;9.226;2023-10-09T03:29:04;15.20;96.30
360;DHT22;168;48.872;9.226;2023-10-09T03:31:36;15.30;96.30
360;DHT22;168;48.872;9.226;2023-10-09T03:34:04;15.20;96.20
360;DHT22;168;48.872;9.226;2023-10-09T03:36:31;15.20;96.20
360;DHT22;168;48.872;9.226;2023-10-09T03:39:03;15.20;96.20
360;DHT22;168;48.872;9.226;2023-10-09T03:41:44;15.30;96.10
360;DHT22;168;48.872;9.226;2023-10-09T03:44:14;15.20;96.10
360;DHT22;168;48.872;9.226;2023-10-09T03:46:44;15.20;96.00
360;DHT22;168;48.872;9.226;2023-10-09T03:49:11;15.20;96.10
360;DHT22;168;48.872;9.226;2023-10-09T03:51:40;15.20;96.10
360;DHT22;168;48.872;9.226;2023-10-09T03:54:08;15.20;96.10
360;DHT22;168;48.872;9.226;2023-10-09T03:56:36;15.30;96.00
360;DHT22;168;48.872;9.226;2023-10-09T03:59:03;15.30;96.00
360;DHT22;168;48.872;9.226;2023-10-09T04:01:32;15.30;95.70
360;DHT22;168;48.872;9.226;2023-10-09T04:04:05;15.40;95.70
360;DHT22;168;48.872;9.226;2023-10-09T04:06:36;15.40;95.50
360;DHT22;168;48.872;9.226;2023-10-09T04:09:04;15.30;95.70
360;DHT22;168;48.872;9.226;2023-10-09T04:11:54;15.30;95.80
360;DHT22;168;48.872;9.226;2023-10-09T04:14:40;15.30;95.60
360;DHT22;168;48.872;9.226;2023-10-09T04:17:22;15.30;95.60
360;DHT22;168;48.872;9.226;2023-10-09T04:20:07;15.30;95.60
360;DHT22;168;48.872;9.226;2023-10-09T04:23:06;15.30;95.60
360;DHT22;168;48.872;9.226;2023-10-09T04:25:33;15.30;95.60
360;DHT22;168;48.872;9.226;2023-10-09T04:28:11;15.30;95.70
360;DHT22;168;48.872;9.226;2023-10-09T04:30:45;15.20;95.70
360;DHT22;168;48.872;9.226;2023-10-09T04:33:21;15.20;95.90
360;DHT22;168;48.872;9.226;2023-10-09T04:36:08;15.20;95.90
360;DHT22;168;48.872;9.226;2023-10-09T04:38:41;15.10;95.90
360;DHT22;168;48.872;9.226;2023-10-09T04:41:21;15.10;96.00
360;DHT22;168;48.872;9.226;2023-10-09T04:43:58;15.10;96.10
360;DHT22;168;48.872;9.226;2023-10-09T04:46:30;15.20;96.00
360;DHT22;168;48.872;9.226;2023-10-09T04:49:11;15.20;95.90
360;DHT22;168;48.872;9.226;2023-10-09T04:51:53;15.20;95.90
360;DHT22;168;48.872;9.226;2023-10-09T04:54:31;15.30;95.70
360;DHT22;168;48.872;9.226;2023-10-09T04:57:05;15.30;95.60
360;DHT22;168;48.872;9.226;2023-10-09T04:59:44;15.30;95.60
360;DHT22;168;48.872;9.226;2023-10-09T05:02:14;15.40;95.30
360;DHT22;168;48.872;9.226;2023-10-09T05:04:47;15.30;95.30
360;DHT22;168;48.872;9.226;2023-10-09T05:07:34;15.30;95.40
360;DHT22;168;48.872;9.226;2023-10-09T05:10:28;15.30;95.30
360;DHT22;168;48.872;9.226;2023-10-09T05:12:58;15.30;95.10
360;DHT22;168;48.872;9.226;2023-10-09T05:15:24;15.30;95.20
360;DHT22;168;48.872;9.226;2023-10-09T05:17:55;15.30;95.30
360;DHT22;168;48.872;9.226;2023-10-09T05:20:22;15.20;95.30
360;DHT22;168;48.872;9.226;2023-10-09T05:23:34;15.20;95.40
360;DHT22;168;48.872;9.226;2023-10-09T05:26:10;15.30;95.50
360;DHT22;168;48.872;9.226;2023-10-09T05:29:03;15.30;95.10
360;DHT22;168;48.872;9.226;2023-10-09T05:31:45;15.30;95.10
360;DHT22;168;48.872;9.226;2023-10-09T05:34:23;15.30;95.20
360;DHT22;168;48.872;9.226;2023-10-09T05:36:59;15.30;95.10
360;DHT22;168;48.872;9.226;2023-10-09T05:39:45;15.40;95.10
360;DHT22;168;48.872;9.226;2023-10-09T05:42:33;15.40;94.80
360;DHT22;168;48.872;9.226;2023-10-09T05:45:10;15.40;94.80
360;DHT22;168;48.872;9.226;2023-10-09T05:48:17;15.30;94.80
360;DHT22;168;48.872;9.226;2023-10-09T05:50:58;15.40;94.60
360;DHT22;168;48.872;9.226;2023-10-09T05:53:45;15.40;94.50
360;DHT22;168;48.872;9.226;2023-10-09T05:56:33;15.40;94.60
360;DHT22;168;48.872;9.226;2023-10-09T05:59:18;15.40;94.50
360;DHT22;168;48.872;9.226;2023-10-09T06:02:03;15.40;94.80
360;DHT22;168;48.872;9.226;2023-10-09T06:04:59;15.50;94.50
360;DHT22;168;48.872;9.226;2023-10-09T06:07:32;15.50;94.10
360;DHT22;168;48.872;9.226;2023-10-09T06:10:27;15.60;93.60
360;DHT22;168;48.872;9.226;2023-10-09T06:13:07;15.60;93.40
360;DHT22;168;48.872;9.226;2023-10-09T06:15:55;15.50;93.40
360;DHT22;168;48.872;9.226;2023-10-09T06:18:51;15.50;93.50
360;DHT22;168;48.872;9.226;2023-10-09T06:21:34;15.60;93.00
360;DHT22;168;48.872;9.226;2023-10-09T06:24:22;15.60;93.20
360;DHT22;168;48.872;9.226;2023-10-09T06:26:50;15.70;93.50
360;DHT22;168;48.872;9.226;2023-10-09T06:29:37;15.70;93.30
360;DHT22;168;48.872;9.226;2023-10-09T06:32:18;15.80;92.70
360;DHT22;168;48.872;9.226;2023-10-09T06:35:01;15.90;92.70
360;DHT22;168;48.872;9.226;2023-10-09T06:37:45;15.90;92.50
360;DHT22;168;48.872;9.226;2023-10-09T06:40:31;16.00;91.90
360;DHT22;168;48.872;9.226;2023-10-09T06:43:16;16.10;91.50
360;DHT22;168;48.872;9.226;2023-10-09T06:45:55;16.10;91.60
360;DHT22;168;48.872;9.226;2023-10-09T06:48:24;16.00;92.20
360;DHT22;168;48.872;9.226;2023-10-09T06:51:12;16.00;92.10
360;DHT22;168;48.872;9.226;2023-10-09T06:54:02;15.90;92.30
360;DHT22;168;48.872;9.226;2023-10-09T06:56:35;16.00;92.60
360;DHT22;168;48.872;9.226;2023-10-09T06:59:20;16.00;92.50
360;DHT22;168;48.872;9.226;2023-10-09T07:01:51;16.10;92.30
360;DHT22;168;48.872;9.226;2023-10-09T07:04:32;16.20;92.60
360;DHT22;168;48.872;9.226;2023-10-09T07:07:14;16.30;93.10
360;DHT22;168;48.872;9.226;2023-10-09T07:09:42;16.40;93.40
360;DHT22;168;48.872;9.226;2023-10-09T07:12:31;16.40;93.50
360;DHT22;168;48.872;9.226;2023-10-09T07:15:00;16.50;93.50
360;DHT22;168;48.872;9.226;2023-10-09T07:17:42;16.60;93.30
360;DHT22;168;48.872;9.226;2023-10-09T07:20:12;16.60;92.90
360;DHT22;168;48.872;9.226;2023-10-09T07:22:41;16.60;92.70
360;DHT22;168;48.872;9.226;2023-10-09T07:25:23;16.70;92.60
360;DHT22;168;48.872;9.226;2023-10-09T07:28:21;16.80;92.40
360;DHT22;168;48.872;9.226;2023-10-09T07:31:16;16.90;91.60
360;DHT22;168;48.872;9.226;2023-10-09T07:33:52;17.00;91.20
360;DHT22;168;48.872;9.226;2023-10-09T07:36:24;17.00;90.60
360;DHT22;168;48.872;9.226;2023-10-09T07:39:05;17.10;90.20
360;DHT22;168;48.872;9.226;2023-10-09T07:41:43;17.20;89.20
360;DHT22;168;48.872;9.226;2023-10-09T07:44:27;17.30;88.80
360;DHT22;168;48.872;9.226;2023-10-09T07:47:04;17.30;88.80
360;DHT22;168;48.872;9.226;2023-10-09T07:49:46;17.40;88.90
360;DHT22;168;48.872;9.226;2023-10-09T07:52:20;17.50;88.60
360;DHT22;168;48.872;9.226;2023-10-09T07:54:49;17.60;88.10
360;DHT22;168;48.872;9.226;2023-10-09T07:57:21;17.70;87.60
360;DHT22;168;48.872;9.226;2023-10-09T07:59:52;17.80;87.40
360;DHT22;168;48.872;9.226;2023-10-09T08:02:28;17.80;87.40
360;DHT22;168;48.872;9.226;2023-10-09T08:05:01;17.90;87.90
360;DHT22;168;48.872;9.226;2023-10-09T08:07:33;18.00;87.30
360;DHT22;168;48.872;9.226;2023-10-09T08:10:03;18.10;87.50
360;DHT22;168;48.872;9.226;2023-10-09T08:12:48;18.20;87.90
360;DHT22;168;48.872;9.226;2023-10-09T08:15:47;18.40;87.50
360;DHT22;168;48.872;9.226;2023-10-09T08:18:22;18.50;86.70
360;DHT22;168;48.872;9.226;2023-10-09T08:20:56;18.60;86.30
360;DHT22;168;48.872;9.226;2023-10-09T08:23:41;18.70;85.90
360;DHT22;168;48.872;9.226;2023-10-09T08:26:18;18.80;85.70
360;DHT22;168;48.872;9.226;2023-10-09T08:28:57;18.90;85.00
360;DHT22;168;48.872;9.226;2023-10-09T08:31:43;19.00;83.90
360;DHT22;168;48.872;9.226;2023-10-09T08:34:22;19.00;83.40
360;DHT22;168;48.872;9.226;2023-10-09T08:36:53;19.10;83.70
360;DHT22;168;48.872;9.226;2023-10-09T08:39:21;19.20;83.60
360;DHT22;168;48.872;9.226;2023-10-09T08:41:59;19.20;83.00
360;DHT22;168;48.872;9.226;2023-10-09T08:44:28;19.30;83.60
360;DHT22;168;48.872;9.226;2023-10-09T08:46:59;19.40;83.90
360;DHT22;168;48.872;9.226;2023-10-09T08:49:26;19.50;84.10
360;DHT22;168;48.872;9.226;2023-10-09T08:51:56;19.70;83.40
360;DHT22;168;48.872;9.226;2023-10-09T08:54:29;19.80;81.50
360;DHT22;168;48.872;9.226;2023-10-09T08:56:59;19.80;81.80
360;DHT22;168;48.872;9.226;2023-10-09T08:59:27;19.90;81.60
360;DHT22;168;48.872;9.226;2023-10-09T09:01:54;20.00;81.50
360;DHT22;168;48.872;9.226;2023-10-09T09:04:35;20.10;81.20
360;DHT22;168;48.872;9.226;2023-10-09T09:07:04;20.10;81.20
360;DHT22;168;48.872;9.226;2023-10-09T09:09:33;20.30;81.30
360;DHT22;168;48.872;9.226;2023-10-09T09:12:00;20.40;80.60
360;DHT22;168;48.872;9.226;2023-10-09T09:14:38;20.40;81.00
360;DHT22;168;48.872;9.226;2023-10-09T09:17:06;20.50;82.00
360;DHT22;168;48.872;9.226;2023-10-09T09:19:37;20.60;82.60
360;DHT22;168;48.872;9.226;2023-10-09T09:22:06;20.70;82.00
360;DHT22;168;48.872;9.226;2023-10-09T09:24:41;20.80;81.90
360;DHT22;168;48.872;9.226;2023-10-09T09:27:18;20.90;79.80
360;DHT22;168;48.872;9.226;2023-10-09T09:29:47;21.00;80.70
360;DHT22;168;48.872;9.226;2023-10-09T09:32:27;21.20;79.80
360;DHT22;168;48.872;9.226;2023-10-09T09:35:02;21.30;80.00
360;DHT22;168;48.872;9.226;2023-10-09T09:37:33;21.50;79.10
360;DHT22;168;48.872;9.226;2023-10-09T09:40:16;21.60;78.60
360;DHT22;168;48.872;9.226;2023-10-09T09:42:57;21.80;78.00
360;DHT22;168;48.872;9.226;2023-10-09T09:45:32;22.00;77.40
360;DHT22;168;48.872;9.226;2023-10-09T09:48:02;22.10;76.40
360;DHT22;168;48.872;9.226;2023-10-09T09:50:32;22.20;75.30
360;DHT22;168;48.872;9.226;2023-10-09T09:53:00;22.30;75.70
360;DHT22;168;48.872;9.226;2023-10-09T09:55:34;22.40;75.90
360;DHT22;168;48.872;9.226;2023-10-09T09:58:10;22.60;75.90
360;DHT22;168;48.872;9.226;2023-10-09T10:00:45;22.70;75.50
360;DHT22;168;48.872;9.226;2023-10-09T10:03:22;22.90;74.80
360;DHT22;168;48.872;9.226;2023-10-09T10:05:53;23.10;73.70
360;DHT22;168;48.872;9.226;2023-10-09T10:08:24;23.30;70.80
360;DHT22;168;48.872;9.226;2023-10-09T10:10:58;23.40;72.10
360;DHT22;168;48.872;9.226;2023-10-09T10:13:56;23.40;71.20
360;DHT22;168;48.872;9.226;2023-10-09T10:16:27;23.60;71.30
360;DHT22;168;48.872;9.226;2023-10-09T10:19:01;23.70;71.60
360;DHT22;168;48.872;9.226;2023-10-09T10:21:47;23.90;70.90
360;DHT22;168;48.872;9.226;2023-10-09T10:24:43;24.10;71.20
360;DHT22;168;48.872;9.226;2023-10-09T10:27:21;24.30;71.60
360;DHT22;168;48.872;9.226;2023-10-09T10:32:57;24.60;71.30
360;DHT22;168;48.872;9.226;2023-10-09T10:35:25;24.80;71.70
360;DHT22;168;48.872;9.226;2023-10-09T10:38:24;24.90;71.40
360;DHT22;168;48.872;9.226;2023-10-09T10:40:53;25.10;71.00
360;DHT22;168;48.872;9.226;2023-10-09T10:43:25;25.30;71.00
360;DHT22;168;48.872;9.226;2023-10-09T10:46:03;25.50;70.70
360;DHT22;168;48.872;9.226;2023-10-09T10:48:40;25.60;69.90
360;DHT22;168;48.872;9.226;2023-10-09T10:51:13;25.60;69.60
360;DHT22;168;48.872;9.226;2023-10-09T10:53:50;25.60;69.40
360;DHT22;168;48.872;9.226;2023-10-09T10:56:20;25.50;69.30
360;DHT22;168;48.872;9.226;2023-10-09T10:58:54;25.50;69.10
360;DHT22;168;48.872;9.226;2023-10-09T11:01:38;25.50;69.50
360;DHT22;168;48.872;9.226;2023-10-09T11:04:21;25.60;68.50
360;DHT22;168;48.872;9.226;2023-10-09T11:07:05;25.60;69.00
360;DHT22;168;48.872;9.226;2023-10-09T11:09:45;25.70;69.20
360;DHT22;168;48.872;9.226;2023-10-09T11:12:44;25.70;68.90
360;DHT22;168;48.872;9.226;2023-10-09T11:15:42;25.80;67.90
360;DHT22;168;48.872;9.226;2023-10-09T11:18:13;25.90;67.20
360;DHT22;168;48.872;9.226;2023-10-09T11:20:48;25.90;67.50
360;DHT22;168;48.872;9.226;2023-10-09T11:23:23;26.00;67.60
360;DHT22;168;48.872;9.226;2023-10-09T11:26:03;26.10;67.70
360;DHT22;168;48.872;9.226;2023-10-09T11:29:08;26.00;67.70
360;DHT22;168;48.872;9.226;2023-10-09T11:31:59;26.00;67.80
360;DHT22;168;48.872;9.226;2023-10-09T11:34:26;25.90;68.10
360;DHT22;168;48.872;9.226;2023-10-09T11:36:59;25.90;68.20
360;DHT22;168;48.872;9.226;2023-10-09T11:39:28;25.80;68.10
360;DHT22;168;48.872;9.226;2023-10-09T11:42:01;25.70;69.30
360;DHT22;168;48.872;9.226;2023-10-09T11:44:39;25.60;70.60
360;DHT22;168;48.872;9.226;2023-10-09T11:47:07;25.50;71.50
360;DHT22;168;48.872;9.226;2023-10-09T11:49:59;25.50;71.20
360;DHT22;168;48.872;9.226;2023-10-09T11:52:57;25.60;71.70
360;DHT22;168;48.872;9.226;2023-10-09T11:55:46;25.60;70.40
360;DHT22;168;48.872;9.226;2023-10-09T11:58:15;25.60;71.20
360;DHT22;168;48.872;9.226;2023-10-09T12:00:51;25.60;70.80
360;DHT22;168;48.872;9.226;2023-10-09T12:03:24;25.50;71.30
360;DHT22;168;48.872;9.226;2023-10-09T12:05:55;25.50;69.20
360;DHT22;168;48.872;9.226;2023-10-09T12:08:24;25.40;69.00
360;DHT22;168;48.872;9.226;2023-10-09T12:10:54;25.30;69.10
360;DHT22;168;48.872;9.226;2023-10-09T12:13:23;25.30;68.40
360;DHT22;168;48.872;9.226;2023-10-09T12:15:52;25.20;68.50
360;DHT22;168;48.872;9.226;2023-10-09T12:18:21;25.10;67.10
360;DHT22;168;48.872;9.226;2023-10-09T12:20:50;25.00;70.50
360;DHT22;168;48.872;9.226;2023-10-09T12:23:18;24.90;70.80
360;DHT22;168;48.872;9.226;2023-10-09T12:25:48;24.80;72.00
360;DHT22;168;48.872;9.226;2023-10-09T12:28:16;24.80;72.30
360;DHT22;168;48.872;9.226;2023-10-09T12:30:46;24.90;72.30
360;DHT22;168;48.872;9.226;2023-10-09T12:33:18;25.00;71.40
360;DHT22;168;48.872;9.226;2023-10-09T12:35:47;25.10;71.60
360;DHT22;168;48.872;9.226;2023-10-09T12:38:14;25.30;71.40
360;DHT22;168;48.872;9.226;2023-10-09T12:40:45;25.50;70.70
360;DHT22;168;48.872;9.226;2023-10-09T12:43:18;25.60;69.80
360;DHT22;168;48.872;9.226;2023-10-09T12:45:48;25.80;69.10
360;DHT22;168;48.872;9.226;2023-10-09T12:48:17;25.90;68.20
360;DHT22;168;48.872;9.226;2023-10-09T12:50:44;26.00;67.40
360;DHT22;168;48.872;9.226;2023-10-09T12:53:11;26.10;67.70
360;DHT22;168;48.872;9.226;2023-10-09T12:55:44;26.10;66.70
360;DHT22;168;48.872;9.226;2023-10-09T12:58:12;26.10;64.10
360;DHT22;168;48.872;9.226;2023-10-09T13:00:42;26.10;64.10
360;DHT22;168;48.872;9.226;2023-10-09T13:03:17;26.20;65.00
360;DHT22;168;48.872;9.226;2023-10-09T13:05:45;26.20;65.80
360;DHT22;168;48.872;9.226;2023-10-09T13:08:22;26.30;66.50
360;DHT22;168;48.872;9.226;2023-10-09T13:10:51;26.40;66.10
360;DHT22;168;48.872;9.226;2023-10-09T13:13:27;26.50;65.70
360;DHT22;168;48.872;9.226;2023-10-09T13:16:09;26.60;63.80
360;DHT22;168;48.872;9.226;2023-10-09T13:18:40;26.70;60.90
360;DHT22;168;48.872;9.226;2023-10-09T13:21:16;26.70;61.00
360;DHT22;168;48.872;9.226;2023-10-09T13:23:43;26.70;59.20
360;DHT22;168;48.872;9.226;2023-10-09T13:26:14;26.70;57.90
360;DHT22;168;48.872;9.226;2023-10-09T13:28:54;26.70;57.00
360;DHT22;168;48.872;9.226;2023-10-09T13:31:23;26.60;56.00
360;DHT22;168;48.872;9.226;2023-10-09T13:33:54;26.40;56.50
360;DHT22;168;48.872;9.226;2023-10-09T13:36:22;26.30;54.10
360;DHT22;168;48.872;9.226;2023-10-09T13:38:58;26.10;52.90
360;DHT22;168;48.872;9.226;2023-10-09T13:41:28;26.10;51.20
360;DHT22;168;48.872;9.226;2023-10-09T13:43:56;26.10;50.50
360;DHT22;168;48.872;9.226;2023-10-09T13:46:28;26.10;50.80
360;DHT22;168;48.872;9.226;2023-10-09T13:48:57;26.10;49.70
360;DHT22;168;48.872;9.226;2023-10-09T13:51:24;26.20;48.80
360;DHT22;168;48.872;9.226;2023-10-09T13:53:58;26.20;47.50
360;DHT22;168;48.872;9.226;2023-10-09T13:56:25;26.30;47.10
360;DHT22;168;48.872;9.226;2023-10-09T13:58:53;26.50;45.70
360;DHT22;168;48.872;9.226;2023-10-09T14:01:21;26.60;45.10
360;DHT22;168;48.872;9.226;2023-10-09T14:03:55;26.50;44.10
360;DHT22;168;48.872;9.226;2023-10-09T14:06:24;26.50;45.20
360;DHT22;168;48.872;9.226;2023-10-09T14:08:58;26.50;44.70
360;DHT22;168;48.872;9.226;2023-10-09T14:11:28;26.50;43.90
360;DHT22;168;48.872;9.226;2023-10-09T14:13:55;26.50;44.20
360;DHT22;168;48.872;9.226;2023-10-09T14:16:22;26.50;44.10
360;DHT22;168;48.872;9.226;2023-10-09T14:18:55;26.50;44.00
360;DHT22;168;48.872;9.226;2023-10-09T14:21:27;26.50;44.80
360;DHT22;168;48.872;9.226;2023-10-09T14:23:57;26.50;45.20
360;DHT22;168;48.872;9.226;2023-10-09T14:26:25;26.50;45.20
360;DHT22;168;48.872;9.226;2023-10-09T14:28:53;26.40;44.50
360;DHT22;168;48.872;9.226;2023-10-09T14:31:23;26.40;45.30
360;DHT22;168;48.872;9.226;2023-10-09T14:33:55;26.40;45.30
360;DHT22;168;48.872;9.226;2023-10-09T14:36:23;26.30;45.40
360;DHT22;168;48.872;9.226;2023-10-09T14:39:01;26.20;45.30
360;DHT22;168;48.872;9.226;2023-10-09T14:41:30;26.20;45.00
360;DHT22;168;48.872;9.226;2023-10-09T14:43:59;26.20;45.90
360;DHT22;168;48.872;9.226;2023-10-09T14:46:26;26.10;45.70
360;DHT22;168;48.872;9.226;2023-10-09T14:48:55;26.00;46.60
360;DHT22;168;48.872;9.226;2023-10-09T14:51:23;26.00;46.30
360;DHT22;168;48.872;9.226;2023-10-09T14:53:54;26.00;45.80
360;DHT22;168;48.872;9.226;2023-10-09T14:56:25;25.90;45.90
360;DHT22;168;48.872;9.226;2023-10-09T14:58:56;25.90;46.40
360;DHT22;168;48.872;9.226;2023-10-09T15:01:25;25.80;46.90
360;DHT22;168;48.872;9.226;2023-10-09T15:03:58;25.80;47.40
360;DHT22;168;48.872;9.226;2023-10-09T15:06:26;25.80;48.00
360;DHT22;168;48.872;9.226;2023-10-09T15:08:56;25.80;47.60
360;DHT22;168;48.872;9.226;2023-10-09T15:11:26;25.80;48.30
360;DHT22;168;48.872;9.226;2023-10-09T15:13:54;25.90;48.10
360;DHT22;168;48.872;9.226;2023-10-09T15:16:24;25.80;48.70
360;DHT22;168;48.872;9.226;2023-10-09T15:18:58;25.80;48.40
360;DHT22;168;48.872;9.226;2023-10-09T15:21:29;25.70;49.20
360;DHT22;168;48.872;9.226;2023-10-09T15:23:59;25.70;49.00
360;DHT22;168;48.872;9.226;2023-10-09T15:26:29;25.60;49.50
360;DHT22;168;48.872;9.226;2023-10-09T15:29:03;25.60;49.60
360;DHT22;168;48.872;9.226;2023-10-09T15:31:32;25.50;50.30
360;DHT22;168;48.872;9.226;2023-10-09T15:34:00;25.40;50.60
360;DHT22;168;48.872;9.226;2023-10-09T15:36:39;25.50;50.00
360;DHT22;168;48.872;9.226;2023-10-09T15:39:09;25.50;51.00
360;DHT22;168;48.872;9.226;2023-10-09T15:41:39;25.50;51.20
360;DHT22;168;48.872;9.226;2023-10-09T15:44:06;25.40;53.10
360;DHT22;168;48.872;9.226;2023-10-09T15:46:34;25.40;52.50
360;DHT22;168;48.872;9.226;2023-10-09T15:49:01;25.40;54.00
360;DHT22;168;48.872;9.226;2023-10-09T15:51:29;25.40;54.60
360;DHT22;168;48.872;9.226;2023-10-09T15:53:56;25.40;52.50
360;DHT22;168;48.872;9.226;2023-10-09T15:56:24;25.40;51.30
360;DHT22;168;48.872;9.226;2023-10-09T15:58:54;25.40;51.70
360;DHT22;168;48.872;9.226;2023-10-09T16:01:22;25.40;56.10
360;DHT22;168;48.872;9.226;2023-10-09T16:03:49;25.30;52.00
360;DHT22;168;48.872;9.226;2023-10-09T16:06:17;25.30;53.10
360;DHT22;168;48.872;9.226;2023-10-09T16:08:46;25.20;53.30
360;DHT22;168;48.872;9.226;2023-10-09T16:11:16;25.10;54.20
360;DHT22;168;48.872;9.226;2023-10-09T16:13:44;24.90;53.80
360;DHT22;168;48.872;9.226;2023-10-09T16:16:12;24.80;54.80
360;DHT22;168;48.872;9.226;2023-10-09T16:18:40;24.70;55.50
360;DHT22;168;48.872;9.226;2023-10-09T16:21:09;24.60;54.10
360;DHT22;168;48.872;9.226;2023-10-09T16:23:39;24.40;55.40
360;DHT22;168;48.872;9.226;2023-10-09T16:26:08;24.40;54.10
360;DHT22;168;48.872;9.226;2023-10-09T16:28:43;24.30;53.40
360;DHT22;168;48.872;9.226;2023-10-09T16:31:24;24.10;54.10
360;DHT22;168;48.872;9.226;2023-10-09T16:37:16;23.70;56.10
360;DHT22;168;48.872;9.226;2023-10-09T16:39:44;23.70;55.30
360;DHT22;168;48.872;9.226;2023-10-09T16:42:11;23.50;56.10
360;DHT22;168;48.872;9.226;2023-10-09T16:44:39;23.30;56.80
360;DHT22;168;48.872;9.226;2023-10-09T16:47:08;23.20;55.90
360;DHT22;168;48.872;9.226;2023-10-09T16:49:36;23.10;55.70
360;DHT22;168;48.872;9.226;2023-10-09T16:52:04;23.10;55.60
360;DHT22;168;48.872;9.226;2023-10-09T16:54:37;23.00;57.50
360;DHT22;168;48.872;9.226;2023-10-09T16:57:04;22.90;56.40
360;DHT22;168;48.872;9.226;2023-10-09T16:59:35;22.80;56.50
360;DHT22;168;48.872;9.226;2023-10-09T17:02:03;22.70;59.40
360;DHT22;168;48.872;9.226;2023-10-09T17:04:35;22.60;61.00
360;DHT22;168;48.872;9.226;2023-10-09T17:07:02;22.50;59.80
360;DHT22;168;48.872;9.226;2023-10-09T17:09:31;22.40;61.10
360;DHT22;168;48.872;9.226;2023-10-09T17:12:00;22.30;60.50
360;DHT22;168;48.872;9.226;2023-10-09T17:14:29;22.30;58.50
360;DHT22;168;48.872;9.226;2023-10-09T17:17:00;22.30;58.20
360;DHT22;168;48.872;9.226;2023-10-09T17:19:36;22.40;57.50
360;DHT22;168;48.872;9.226;2023-10-09T17:22:08;22.30;57.70
360;DHT22;168;48.872;9.226;2023-10-09T17:24:38;22.40;57.40
360;DHT22;168;48.872;9.226;2023-10-09T17:27:06;22.30;58.50
360;DHT22;168;48.872;9.226;2023-10-09T17:29:35;22.20;58.90